Time;durP1;ratioP1;P1;durP2;ratioP2;P2;SDS_P1;SDS_P2;PMS_P1;PMS_P2;Temp;Humidity;BMP_temperature;BMP_pressure;BME280_temperature;BME280_humidity;BME280_pressure;Samples;Min_cycle;Max_cycle;Signal;HPM_P1;HPM_P2
2022/10/18 00:01:54;;;;;;;;;;;;;;;14.88;88.36;102118.16;4999143;28;20004;-78
2022/10/18 00:04:19;;;;;;;;;;;;;;;14.88;88.38;102123.41;5008329;28;19921;-78
2022/10/18 00:06:44;;;;;;;;;;;;;;;14.87;88.36;102124.28;5008546;28;19921;-79
2022/10/18 00:09:10;;;;;;;;;;;;;;;14.90;88.24;102119.00;5010105;28;19944;-78
2022/10/18 00:11:35;;;;;;;;;;;;;;;14.86;88.61;102122.53;5006096;28;20043;-78
2022/10/18 00:14:00;;;;;;;;;;;;;;;14.89;88.42;102124.25;5008699;28;19929;-78
2022/10/18 00:16:26;;;;;;;;;;;;;;;14.90;88.60;102116.38;5010383;28;20337;-78
2022/10/18 00:18:51;;;;;;;;;;;;;;;14.86;88.68;102112.94;5008049;28;20548;-78
2022/10/18 00:21:18;;;;;;;;;;;;;;;14.83;89.00;102117.34;5006589;28;19925;-78
2022/10/18 00:23:43;;;;;;;;;;;;;;;14.85;88.76;102119.09;5011746;28;19925;-78
2022/10/18 00:26:12;;;;;;;;;;;;;;;14.90;88.62;102119.00;5005912;28;20420;-78
2022/10/18 00:28:38;;;;;;;;;;;;;;;14.87;88.94;102111.19;5015939;28;20121;-78
2022/10/18 00:31:09;;;;;;;;;;;;;;;14.89;88.96;102109.41;5006981;28;19968;-78
2022/10/18 00:33:34;;;;;;;;;;;;;;;14.89;88.80;102100.72;5008608;28;20450;-78
2022/10/18 00:35:59;;;;;;;;;;;;;;;14.89;88.73;102098.94;5003664;28;20012;-78
2022/10/18 00:38:25;;;;;;;;;;;;;;;14.91;88.72;102098.94;5005620;28;20750;-78
2022/10/18 00:40:50;;;;;;;;;;;;;;;14.89;88.57;102093.69;5010197;28;19936;-78
2022/10/18 00:43:17;;;;;;;;;;;;;;;14.90;88.48;102098.06;5005645;28;20031;-78
2022/10/18 00:45:42;;;;;;;;;;;;;;;14.90;88.56;102095.44;5007814;28;20472;-78
2022/10/18 00:48:07;;;;;;;;;;;;;;;14.90;88.64;102095.44;5006899;28;19926;-78
2022/10/18 00:50:33;;;;;;;;;;;;;;;14.88;88.77;102099.84;5010987;28;19932;-78
2022/10/18 00:53:01;;;;;;;;;;;;;;;14.89;88.74;102096.31;5006729;28;20310;-78
2022/10/18 00:55:27;;;;;;;;;;;;;;;14.89;88.86;102085.84;5012889;28;19928;-78
2022/10/18 00:57:52;;;;;;;;;;;;;;;14.92;88.82;102085.81;5012247;28;19926;-78
2022/10/18 01:00:18;;;;;;;;;;;;;;;14.87;88.83;102088.50;5020429;28;20310;-78
2022/10/18 01:02:44;;;;;;;;;;;;;;;14.89;88.93;102087.63;5015126;28;20397;-79
2022/10/18 01:05:18;;;;;;;;;;;;;;;14.87;88.81;102092.88;5013964;28;19965;-78
2022/10/18 01:07:52;;;;;;;;;;;;;;;14.85;88.79;102085.06;5010548;28;20383;-78
2022/10/18 01:10:25;;;;;;;;;;;;;;;14.86;88.98;102084.16;5005328;28;19971;-78
2022/10/18 01:13:12;;;;;;;;;;;;;;;14.86;89.13;102080.69;5007847;28;19925;-78
2022/10/18 01:15:42;;;;;;;;;;;;;;;14.89;89.05;102085.03;5010209;28;20016;-78
2022/10/18 01:18:07;;;;;;;;;;;;;;;14.90;89.20;102076.25;5010193;28;19929;-78
2022/10/18 01:20:53;;;;;;;;;;;;;;;14.91;88.90;102073.63;5011628;28;19913;-78
2022/10/18 01:23:41;;;;;;;;;;;;;;;14.88;89.14;102065.84;4989964;28;19922;-76
2022/10/18 01:26:23;;;;;;;;;;;;;;;14.88;88.98;102073.69;4980375;28;20016;-78
2022/10/18 01:29:03;;;;;;;;;;;;;;;14.83;89.18;102070.25;5012240;28;19921;-78
2022/10/18 01:31:34;;;;;;;;;;;;;;;14.87;89.22;102075.44;5012536;28;19991;-78
2022/10/18 01:34:02;;;;;;;;;;;;;;;14.90;88.89;102068.41;5011146;28;19925;-78
2022/10/18 01:36:32;;;;;;;;;;;;;;;14.89;88.95;102074.56;5015607;28;19968;-78
2022/10/18 01:39:00;;;;;;;;;;;;;;;14.85;89.03;102084.22;5013386;28;20578;-78
2022/10/18 01:41:27;;;;;;;;;;;;;;;14.85;89.01;102084.22;5007491;28;19929;-78
2022/10/18 01:43:55;;;;;;;;;;;;;;;14.81;89.11;102072.94;5011459;28;20012;-78
2022/10/18 01:46:22;;;;;;;;;;;;;;;14.83;89.17;102065.91;5008948;28;19928;-78
2022/10/18 01:48:50;;;;;;;;;;;;;;;14.85;89.21;102065.88;5010344;28;19929;-78
2022/10/18 01:51:17;;;;;;;;;;;;;;;14.86;88.93;102062.38;5008318;28;19930;-78
2022/10/18 01:53:43;;;;;;;;;;;;;;;14.88;88.87;102068.44;5010787;28;20008;-78
2022/10/18 01:56:11;;;;;;;;;;;;;;;14.86;88.77;102065.84;5008972;28;20442;-78
2022/10/18 01:58:51;;;;;;;;;;;;;;;14.86;88.88;102068.47;5011910;28;20016;-78
2022/10/18 02:01:24;;;;;;;;;;;;;;;14.82;89.03;102072.03;5007758;28;19925;-78
2022/10/18 02:03:52;;;;;;;;;;;;;;;14.82;89.05;102066.81;5008858;28;20679;-78
2022/10/18 02:06:22;;;;;;;;;;;;;;;14.81;89.06;102064.22;5010238;28;19983;-78
2022/10/18 02:08:53;;;;;;;;;;;;;;;14.79;89.15;102064.25;5009606;28;19921;-78
2022/10/18 02:11:18;;;;;;;;;;;;;;;14.81;89.05;102066.81;5007686;28;20029;-76
2022/10/18 02:13:43;;;;;;;;;;;;;;;14.83;88.92;102067.66;5001381;28;20012;-78
2022/10/18 02:16:13;;;;;;;;;;;;;;;14.83;88.70;102068.53;5009889;28;19931;-73
2022/10/18 02:18:40;;;;;;;;;;;;;;;14.82;88.81;102068.56;5011554;28;19932;-73
2022/10/18 02:21:07;;;;;;;;;;;;;;;14.80;88.68;102067.72;5013104;28;19967;-73
2022/10/18 02:23:33;;;;;;;;;;;;;;;14.80;88.89;102068.56;5003765;28;19913;-74
2022/10/18 02:25:59;;;;;;;;;;;;;;;14.80;88.60;102065.09;5008495;28;20008;-73
2022/10/18 02:28:24;;;;;;;;;;;;;;;14.80;88.70;102067.72;5010898;28;20012;-73
2022/10/18 02:31:05;;;;;;;;;;;;;;;14.82;88.75;102066.81;5008945;28;19929;-73
2022/10/18 02:33:38;;;;;;;;;;;;;;;14.83;88.83;102073.75;5007980;28;19925;-73
2022/10/18 02:36:22;;;;;;;;;;;;;;;14.82;88.88;102074.66;5007901;28;19925;-73
2022/10/18 02:38:52;;;;;;;;;;;;;;;14.81;88.97;102078.16;5007161;28;19928;-74
2022/10/18 02:41:21;;;;;;;;;;;;;;;14.82;88.75;102071.19;5008830;28;19947;-73
2022/10/18 02:43:46;;;;;;;;;;;;;;;14.85;88.78;102074.59;5006238;28;20011;-73
2022/10/18 02:46:12;;;;;;;;;;;;;;;14.84;88.83;102074.63;5007981;28;20306;-73
2022/10/18 02:48:37;;;;;;;;;;;;;;;14.85;88.69;102074.59;5008496;28;19925;-73
2022/10/18 02:51:02;;;;;;;;;;;;;;;14.88;88.50;102076.31;5006375;28;20334;-73
2022/10/18 02:53:27;;;;;;;;;;;;;;;14.88;88.79;102073.69;5008398;28;19955;-73
2022/10/18 02:55:53;;;;;;;;;;;;;;;14.86;88.74;102078.06;5008355;28;19921;-74
2022/10/18 02:58:18;;;;;;;;;;;;;;;14.82;89.13;102077.28;5012794;28;20009;-74
2022/10/18 03:00:43;;;;;;;;;;;;;;;14.85;89.22;102081.59;5007355;28;19928;-73
2022/10/18 03:03:09;;;;;;;;;;;;;;;14.83;89.07;102081.59;4996542;28;19921;-73
2022/10/18 03:05:34;;;;;;;;;;;;;;;14.81;89.48;102085.13;4994733;28;19980;-73
2022/10/18 03:07:59;;;;;;;;;;;;;;;14.81;89.61;102086.00;5011757;28;19917;-73
2022/10/18 03:10:24;;;;;;;;;;;;;;;14.86;89.30;102088.53;5002957;28;19967;-73
2022/10/18 03:12:49;;;;;;;;;;;;;;;14.85;89.39;102086.81;5010439;28;19974;-73
2022/10/18 03:15:15;;;;;;;;;;;;;;;14.81;89.78;102087.75;5009528;28;19988;-74
2022/10/18 03:17:40;;;;;;;;;;;;;;;14.84;89.67;102092.94;4990557;28;20310;-74
2022/10/18 03:20:06;;;;;;;;;;;;;;;14.82;89.98;102098.22;5006633;28;19971;-73
2022/10/18 03:22:31;;;;;;;;;;;;;;;14.83;89.84;102091.19;5004449;28;20410;-73
2022/10/18 03:24:56;;;;;;;;;;;;;;;14.85;89.65;102095.53;4991776;28;19972;-73
2022/10/18 03:27:22;;;;;;;;;;;;;;;14.87;89.58;102098.09;5007854;28;19921;-73
2022/10/18 03:29:47;;;;;;;;;;;;;;;14.84;89.97;102090.31;5012012;28;20398;-73
2022/10/18 03:32:12;;;;;;;;;;;;;;;14.82;89.94;102103.44;5012325;28;19921;-73
2022/10/18 03:34:37;;;;;;;;;;;;;;;14.81;89.80;102096.47;5011372;28;20008;-73
2022/10/18 03:37:03;;;;;;;;;;;;;;;14.82;90.00;102095.59;5009032;28;19925;-74
2022/10/18 03:39:28;;;;;;;;;;;;;;;14.84;89.73;102093.81;5008270;28;20079;-73
2022/10/18 03:41:53;;;;;;;;;;;;;;;14.85;89.60;102092.91;5008466;28;20334;-73
2022/10/18 03:44:18;;;;;;;;;;;;;;;14.85;89.78;102086.81;5005524;28;20014;-74
2022/10/18 03:46:44;;;;;;;;;;;;;;;14.81;89.83;102086.00;5005636;28;19921;-73
2022/10/18 03:49:09;;;;;;;;;;;;;;;14.85;89.61;102081.59;5006629;28;19917;-73
2022/10/18 03:51:34;;;;;;;;;;;;;;;14.83;89.34;102076.38;5003373;28;20027;-73
2022/10/18 03:53:59;;;;;;;;;;;;;;;14.82;89.21;102079.03;5006850;28;20447;-73
2022/10/18 03:56:25;;;;;;;;;;;;;;;14.83;89.24;102080.72;5008408;28;19917;-74
2022/10/18 03:58:50;;;;;;;;;;;;;;;14.79;89.07;102079.94;5010132;28;20356;-73
2022/10/18 04:01:15;;;;;;;;;;;;;;;14.77;89.23;102076.47;5009740;28;19921;-73
2022/10/18 04:03:41;;;;;;;;;;;;;;;14.79;89.11;102073.84;5011398;28;19922;-73
2022/10/18 04:06:08;;;;;;;;;;;;;;;14.79;89.11;102066.88;5014499;28;20413;-74
2022/10/18 04:08:33;;;;;;;;;;;;;;;14.79;88.95;102071.22;5006881;28;20267;-73
2022/10/18 04:11:03;;;;;;;;;;;;;;;14.75;88.99;102078.25;5007795;28;19920;-73
2022/10/18 04:13:28;;;;;;;;;;;;;;;14.77;88.93;102086.94;5003978;28;19953;-73
2022/10/18 04:15:53;;;;;;;;;;;;;;;14.75;88.84;102090.47;5007095;28;20409;-73
2022/10/18 04:18:18;;;;;;;;;;;;;;;14.72;88.94;102088.75;5003687;28;19929;-73
2022/10/18 04:20:44;;;;;;;;;;;;;;;14.76;88.80;102097.44;5007531;28;20008;-73
2022/10/18 04:23:09;;;;;;;;;;;;;;;14.69;89.06;102091.41;5007926;28;20337;-73
2022/10/18 04:25:34;;;;;;;;;;;;;;;14.72;88.81;102087.88;5012812;28;19921;-73
2022/10/18 04:27:59;;;;;;;;;;;;;;;14.71;88.81;102084.38;5012705;28;19947;-73
2022/10/18 04:30:25;;;;;;;;;;;;;;;14.74;88.81;102084.38;5014744;28;20008;-73
2022/10/18 04:32:50;;;;;;;;;;;;;;;14.72;88.78;102085.25;5016861;28;19933;-74
2022/10/18 04:35:15;;;;;;;;;;;;;;;14.71;88.63;102088.78;5019339;28;19925;-73
2022/10/18 04:37:41;;;;;;;;;;;;;;;14.73;88.64;102092.22;5015320;28;19922;-73
2022/10/18 04:40:06;;;;;;;;;;;;;;;14.72;88.94;102082.66;5017657;28;19921;-73
2022/10/18 04:42:31;;;;;;;;;;;;;;;14.71;88.86;102094.84;5011589;28;19921;-73
2022/10/18 04:44:57;;;;;;;;;;;;;;;14.72;88.87;102090.50;5013307;28;19979;-73
2022/10/18 04:47:22;;;;;;;;;;;;;;;14.71;89.10;102097.47;5011029;28;19929;-73
2022/10/18 04:49:47;;;;;;;;;;;;;;;14.72;88.84;102086.13;5018011;28;20012;-73
2022/10/18 04:52:12;;;;;;;;;;;;;;;14.74;88.73;102080.88;5013700;28;20007;-73
2022/10/18 04:54:38;;;;;;;;;;;;;;;14.74;88.99;102091.34;4997154;28;20176;-73
2022/10/18 04:57:03;;;;;;;;;;;;;;;14.72;88.91;102083.50;5013733;28;20378;-73
2022/10/18 04:59:29;;;;;;;;;;;;;;;14.71;88.92;102088.78;5006489;28;19932;-73
2022/10/18 05:01:54;;;;;;;;;;;;;;;14.69;89.18;102094.03;5010522;28;19929;-73
2022/10/18 05:04:19;;;;;;;;;;;;;;;14.65;89.44;102097.56;5016780;28;19921;-73
2022/10/18 05:06:45;;;;;;;;;;;;;;;14.60;89.50;102096.78;5013728;28;19948;-73
2022/10/18 05:09:10;;;;;;;;;;;;;;;14.59;89.70;102104.69;5012003;28;19949;-73
2022/10/18 05:11:35;;;;;;;;;;;;;;;14.60;89.69;102101.16;4997491;28;19925;-74
2022/10/18 05:14:00;;;;;;;;;;;;;;;14.59;89.52;102102.91;5013137;28;19917;-73
2022/10/18 05:16:27;;;;;;;;;;;;;;;14.62;89.61;102100.25;5019231;28;19917;-73
2022/10/18 05:18:52;;;;;;;;;;;;;;;14.61;89.65;102100.28;5012656;28;20413;-73
2022/10/18 05:21:17;;;;;;;;;;;;;;;14.58;89.52;102111.66;5012342;28;19925;-74
2022/10/18 05:23:43;;;;;;;;;;;;;;;14.56;89.70;102112.56;5007022;28;19933;-73
2022/10/18 05:26:11;;;;;;;;;;;;;;;14.61;89.67;102115.97;5010310;28;19921;-73
2022/10/18 05:28:36;;;;;;;;;;;;;;;14.59;89.69;102121.22;5000940;28;19921;-73
2022/10/18 05:31:05;;;;;;;;;;;;;;;14.59;89.69;102117.75;4997019;28;19948;-73
2022/10/18 05:33:31;;;;;;;;;;;;;;;14.59;89.85;102113.38;5010289;28;20826;-75
2022/10/18 05:35:56;;;;;;;;;;;;;;;14.60;89.80;102115.09;5008961;28;19925;-74
2022/10/18 05:38:22;;;;;;;;;;;;;;;14.65;89.62;102115.88;5015059;28;19924;-74
2022/10/18 05:40:47;;;;;;;;;;;;;;;14.63;89.59;102112.44;5011004;28;19926;-74
2022/10/18 05:43:12;;;;;;;;;;;;;;;14.59;89.82;102121.22;5008659;28;20394;-73
2022/10/18 05:45:38;;;;;;;;;;;;;;;14.62;89.78;102102.84;5009038;28;20128;-74
2022/10/18 05:48:04;;;;;;;;;;;;;;;14.65;89.81;102108.03;5009173;28;19922;-73
2022/10/18 05:50:30;;;;;;;;;;;;;;;14.66;89.71;102108.91;4993830;28;19921;-73
2022/10/18 05:52:56;;;;;;;;;;;;;;;14.64;89.97;102127.25;5008743;28;19928;-73
2022/10/18 05:55:21;;;;;;;;;;;;;;;14.63;89.92;102124.66;5008631;28;19922;-74
2022/10/18 05:57:50;;;;;;;;;;;;;;;14.67;89.79;102129.81;5010921;28;19972;-73
2022/10/18 06:00:16;;;;;;;;;;;;;;;14.66;89.83;102128.09;5013211;28;19933;-73
2022/10/18 06:02:41;;;;;;;;;;;;;;;14.67;89.62;102134.19;5017480;28;19976;-73
2022/10/18 06:05:06;;;;;;;;;;;;;;;14.67;89.67;102137.66;5012451;28;19922;-73
2022/10/18 06:07:32;;;;;;;;;;;;;;;14.67;89.58;102139.41;5011381;28;20020;-73
2022/10/18 06:09:57;;;;;;;;;;;;;;;14.64;89.86;102147.31;5009776;28;19957;-73
2022/10/18 06:12:22;;;;;;;;;;;;;;;14.66;89.74;102135.06;5009201;28;19984;-73
2022/10/18 06:14:48;;;;;;;;;;;;;;;14.65;89.92;102139.41;5006910;28;19973;-73
2022/10/18 06:17:13;;;;;;;;;;;;;;;14.67;89.91;102139.41;5010067;28;19917;-73
2022/10/18 06:19:38;;;;;;;;;;;;;;;14.64;89.93;102142.06;5006178;28;20020;-74
2022/10/18 06:22:04;;;;;;;;;;;;;;;14.70;89.86;102147.22;5009891;28;19964;-73
2022/10/18 06:24:29;;;;;;;;;;;;;;;14.68;89.84;102136.75;5009069;28;19922;-73
2022/10/18 06:26:54;;;;;;;;;;;;;;;14.71;89.81;102141.09;5009669;28;20369;-73
2022/10/18 06:29:19;;;;;;;;;;;;;;;14.66;89.91;102140.28;5010313;28;19948;-73
2022/10/18 06:31:45;;;;;;;;;;;;;;;14.70;89.61;102132.38;5011634;28;19932;-73
2022/10/18 06:34:10;;;;;;;;;;;;;;;14.68;89.72;102131.53;5011806;28;19922;-73
2022/10/18 06:36:35;;;;;;;;;;;;;;;14.67;89.72;102132.44;4994375;28;20295;-73
2022/10/18 06:39:01;;;;;;;;;;;;;;;14.69;89.93;102137.63;5007280;28;19934;-73
2022/10/18 06:41:26;;;;;;;;;;;;;;;14.67;90.06;102142.91;5008338;28;20406;-73
2022/10/18 06:43:55;;;;;;;;;;;;;;;14.69;89.85;102135.88;5009576;28;19926;-73
2022/10/18 06:46:20;;;;;;;;;;;;;;;14.74;89.73;102143.66;5007962;28;20003;-73
2022/10/18 06:48:46;;;;;;;;;;;;;;;14.70;89.75;102145.47;4993325;28;20367;-73
2022/10/18 06:51:11;;;;;;;;;;;;;;;14.69;90.09;102148.97;5005398;28;19929;-73
2022/10/18 06:53:37;;;;;;;;;;;;;;;14.68;89.91;102149.84;5007270;28;19928;-73
2022/10/18 06:56:07;;;;;;;;;;;;;;;14.69;90.11;102150.69;4992097;28;19917;-73
2022/10/18 06:58:34;;;;;;;;;;;;;;;14.71;89.98;102148.94;5010900;28;20491;-74
2022/10/18 07:01:04;;;;;;;;;;;;;;;14.68;90.26;102151.63;4998261;28;19925;-73
2022/10/18 07:03:29;;;;;;;;;;;;;;;14.69;90.32;102153.31;5006843;28;19926;-73
2022/10/18 07:05:58;;;;;;;;;;;;;;;14.71;90.23;102165.47;5014569;28;19924;-73
2022/10/18 07:08:24;;;;;;;;;;;;;;;14.71;90.22;102169.88;5008244;28;20334;-73
2022/10/18 07:10:49;;;;;;;;;;;;;;;14.72;90.27;102169.84;5007803;28;20060;-73
2022/10/18 07:13:15;;;;;;;;;;;;;;;14.72;90.28;102169.84;5005902;28;19922;-73
2022/10/18 07:15:40;;;;;;;;;;;;;;;14.73;90.42;102176.81;5008073;28;20302;-73
2022/10/18 07:18:05;;;;;;;;;;;;;;;14.75;90.29;102174.19;5006675;28;19932;-73
2022/10/18 07:20:30;;;;;;;;;;;;;;;14.75;90.19;102171.56;5012495;28;19971;-73
2022/10/18 07:22:56;;;;;;;;;;;;;;;14.72;90.38;102177.69;5006961;28;20425;-73
2022/10/18 07:25:21;;;;;;;;;;;;;;;14.73;90.39;102182.03;5007976;28;19925;-73
2022/10/18 07:27:46;;;;;;;;;;;;;;;14.73;90.42;102191.63;5012697;28;19975;-73
2022/10/18 07:30:11;;;;;;;;;;;;;;;14.74;90.48;102190.75;5009240;28;19930;-73
2022/10/18 07:32:37;;;;;;;;;;;;;;;14.75;90.53;102188.13;5013808;28;19925;-73
2022/10/18 07:35:02;;;;;;;;;;;;;;;14.74;90.39;102194.25;4991648;28;20016;-73
2022/10/18 07:37:28;;;;;;;;;;;;;;;14.74;90.26;102196.84;4989463;28;19926;-73
2022/10/18 07:39:53;;;;;;;;;;;;;;;14.78;90.22;102201.16;5005039;28;19992;-73
2022/10/18 07:42:18;;;;;;;;;;;;;;;14.78;89.80;102203.78;5007421;28;19956;-73
2022/10/18 07:44:44;;;;;;;;;;;;;;;14.79;89.86;102204.66;5007623;28;19917;-73
2022/10/18 07:47:09;;;;;;;;;;;;;;;14.79;89.78;102212.50;5007814;28;20004;-73
2022/10/18 07:49:34;;;;;;;;;;;;;;;14.76;90.00;102212.53;4992105;28;19972;-73
2022/10/18 07:52:00;;;;;;;;;;;;;;;14.77;89.79;102222.09;5006956;28;19968;-73
2022/10/18 07:54:25;;;;;;;;;;;;;;;14.79;89.58;102225.56;5007534;28;19929;-73
2022/10/18 07:56:50;;;;;;;;;;;;;;;14.81;89.60;102232.50;5005139;28;19928;-73
2022/10/18 07:59:15;;;;;;;;;;;;;;;14.79;89.68;102229.06;4993523;28;20402;-73
2022/10/18 08:01:41;;;;;;;;;;;;;;;14.80;89.71;102232.50;5008218;28;20425;-74
2022/10/18 08:04:06;;;;;;;;;;;;;;;14.81;89.48;102231.63;5007794;28;19924;-74
2022/10/18 08:06:31;;;;;;;;;;;;;;;14.76;89.99;102236.94;5001972;28;19921;-73
2022/10/18 08:08:57;;;;;;;;;;;;;;;14.75;89.91;102239.56;5004903;28;20456;-73
2022/10/18 08:11:23;;;;;;;;;;;;;;;14.79;89.92;102243.88;5006197;28;19952;-73
2022/10/18 08:13:48;;;;;;;;;;;;;;;14.78;90.02;102237.78;5008345;28;20370;-73
2022/10/18 08:16:19;;;;;;;;;;;;;;;14.79;90.04;102236.91;5006673;28;19929;-73
2022/10/18 08:18:44;;;;;;;;;;;;;;;14.81;89.97;102235.13;5009039;28;19932;-73
2022/10/18 08:21:10;;;;;;;;;;;;;;;14.81;90.15;102236.88;5004641;28;20386;-73
2022/10/18 08:23:36;;;;;;;;;;;;;;;14.82;89.73;102234.25;5006998;28;19922;-73
2022/10/18 08:26:03;;;;;;;;;;;;;;;14.83;89.71;102245.53;5008217;28;19916;-73
2022/10/18 08:28:28;;;;;;;;;;;;;;;14.78;89.75;102237.78;5008335;28;19922;-73
2022/10/18 08:30:54;;;;;;;;;;;;;;;14.82;89.78;102243.84;5006651;28;20025;-73
2022/10/18 08:33:19;;;;;;;;;;;;;;;14.82;89.99;102249.06;5015177;28;19926;-74
2022/10/18 08:35:53;;;;;;;;;;;;;;;14.83;89.41;102248.16;4995093;28;19917;-73
2022/10/18 08:38:18;;;;;;;;;;;;;;;14.82;89.28;102246.47;5011693;28;20283;-73
2022/10/18 08:40:43;;;;;;;;;;;;;;;14.85;89.56;102256.88;4989347;28;19971;-73
2022/10/18 08:43:27;;;;;;;;;;;;;;;14.86;90.18;102256.84;5008119;28;19941;-73
2022/10/18 08:45:53;;;;;;;;;;;;;;;14.92;90.21;102255.03;5004775;28;19932;-73
2022/10/18 08:48:31;;;;;;;;;;;;;;;14.94;89.89;102268.94;5006410;28;20379;-73
2022/10/18 08:50:57;;;;;;;;;;;;;;;14.94;90.21;102264.59;5004736;28;20316;-74
2022/10/18 08:53:48;;;;;;;;;;;;;;;14.96;90.41;102261.94;5006823;28;19956;-73
2022/10/18 08:56:13;;;;;;;;;;;;;;;14.96;90.56;102270.66;4999830;28;19996;-73
2022/10/18 08:58:40;;;;;;;;;;;;;;;14.94;90.44;102263.72;5011720;28;20272;-73
2022/10/18 09:01:08;;;;;;;;;;;;;;;14.96;90.48;102273.28;5009616;28;20000;-73
2022/10/18 09:03:51;;;;;;;;;;;;;;;14.96;90.44;102275.00;4996276;28;19922;-73
2022/10/18 09:06:20;;;;;;;;;;;;;;;14.98;90.58;102278.50;5010555;28;19917;-73
2022/10/18 09:08:53;;;;;;;;;;;;;;;14.98;90.30;102275.88;5008982;28;20290;-73
2022/10/18 09:11:23;;;;;;;;;;;;;;;15.00;90.57;102282.81;5007647;28;19922;-73
2022/10/18 09:13:54;;;;;;;;;;;;;;;15.00;90.77;102289.78;5011349;28;19926;-74
2022/10/18 09:16:25;;;;;;;;;;;;;;;14.99;90.54;102282.81;5008421;28;19928;-73
2022/10/18 09:19:14;;;;;;;;;;;;;;;14.98;90.17;102281.13;5010617;28;20012;-73
2022/10/18 09:22:00;;;;;;;;;;;;;;;14.97;90.29;102287.22;5010244;28;19929;-73
2022/10/18 09:24:38;;;;;;;;;;;;;;;14.96;90.39;102288.97;5009346;28;19975;-73
2022/10/18 09:27:07;;;;;;;;;;;;;;;14.99;90.33;102288.94;5011632;28;19929;-73
2022/10/18 09:29:32;;;;;;;;;;;;;;;14.99;90.20;102288.94;5009824;28;19932;-73
2022/10/18 09:32:07;;;;;;;;;;;;;;;14.98;nan;102292.41;5011353;28;19922;-73
2022/10/18 09:34:42;;;;;;;;;;;;;;;15.02;89.78;102291.50;5001072;28;19979;-73
2022/10/18 09:37:12;;;;;;;;;;;;;;;15.04;90.07;102289.72;5010171;28;19941;-73
2022/10/18 09:39:38;;;;;;;;;;;;;;;15.04;90.38;102294.06;5009855;28;20129;-73
2022/10/18 09:42:28;;;;;;;;;;;;;;;14.99;89.84;102291.53;4993263;28;19932;-73
2022/10/18 09:44:58;;;;;;;;;;;;;;;15.00;89.64;102295.91;5007306;28;20448;-73
2022/10/18 09:47:28;;;;;;;;;;;;;;;15.02;90.27;102298.47;5005658;28;19959;-73
2022/10/18 09:49:57;;;;;;;;;;;;;;;15.08;89.99;102301.00;5010148;28;19940;-73
2022/10/18 09:52:43;;;;;;;;;;;;;;;15.04;89.84;102299.31;5006396;28;19925;-73
2022/10/18 09:55:14;;;;;;;;;;;;;;;15.05;89.82;102295.81;5008957;28;19933;-73
2022/10/18 09:57:45;;;;;;;;;;;;;;;15.06;90.02;102301.03;5009685;28;19925;-73
2022/10/18 10:00:15;;;;;;;;;;;;;;;15.06;90.15;102295.81;5009896;28;19925;-73
2022/10/18 10:02:41;;;;;;;;;;;;;;;15.08;90.05;102301.00;5017155;28;19914;-74
2022/10/18 10:05:11;;;;;;;;;;;;;;;15.09;90.04;102310.59;4993810;28;19967;-73
2022/10/18 10:07:40;;;;;;;;;;;;;;;15.08;90.25;102301.88;5007108;28;19999;-74
2022/10/18 10:10:06;;;;;;;;;;;;;;;15.09;90.25;102308.84;5009352;28;19928;-74
2022/10/18 10:12:33;;;;;;;;;;;;;;;15.08;89.46;102311.47;5010048;28;19921;-73
2022/10/18 10:15:11;;;;;;;;;;;;;;;15.07;89.24;102314.97;5008862;28;20399;-73
2022/10/18 10:17:36;;;;;;;;;;;;;;;15.07;89.35;102315.84;5008906;28;19975;-74
2022/10/18 10:20:25;;;;;;;;;;;;;;;15.06;89.56;102315.88;5008829;28;20391;-74
2022/10/18 10:22:51;;;;;;;;;;;;;;;15.05;89.46;102308.91;4994632;28;19926;-73
2022/10/18 10:25:29;;;;;;;;;;;;;;;15.03;89.55;102311.56;5011677;28;19930;-73
2022/10/18 10:28:00;;;;;;;;;;;;;;;15.08;89.61;102319.31;5011914;28;19929;-73
2022/10/18 10:30:28;;;;;;;;;;;;;;;15.09;89.83;102316.69;5009821;28;19969;-73
2022/10/18 10:32:54;;;;;;;;;;;;;;;15.10;89.92;102322.78;5013386;28;19972;-73
2022/10/18 10:35:26;;;;;;;;;;;;;;;15.11;90.27;102330.63;5014228;28;19926;-73
2022/10/18 10:37:52;;;;;;;;;;;;;;;15.14;90.65;102330.56;5008453;28;19932;-73
2022/10/18 10:40:25;;;;;;;;;;;;;;;15.12;90.51;102331.50;5008102;28;20134;-73
2022/10/18 10:42:56;;;;;;;;;;;;;;;15.09;90.08;102329.78;5009163;28;19926;-72
2022/10/18 10:45:22;;;;;;;;;;;;;;;15.12;90.02;102334.09;5009306;28;20401;-73
2022/10/18 10:47:48;;;;;;;;;;;;;;;15.12;89.76;102331.50;5009098;28;19917;-73
2022/10/18 10:50:21;;;;;;;;;;;;;;;15.13;89.66;102326.22;5008042;28;19918;-73
2022/10/18 10:52:47;;;;;;;;;;;;;;;15.16;89.62;102333.16;5008131;28;19987;-73
2022/10/18 10:55:19;;;;;;;;;;;;;;;15.15;89.59;102334.94;5008359;28;20390;-73
2022/10/18 10:57:47;;;;;;;;;;;;;;;15.14;89.76;102334.94;5006804;28;19925;-73
2022/10/18 11:00:30;;;;;;;;;;;;;;;15.13;89.70;102336.69;5010613;28;19921;-73
2022/10/18 11:03:04;;;;;;;;;;;;;;;15.11;89.83;102342.84;5001042;28;19980;-73
2022/10/18 11:05:29;;;;;;;;;;;;;;;15.12;90.04;102331.50;4988242;28;19909;-73
2022/10/18 11:07:57;;;;;;;;;;;;;;;15.12;89.95;102340.22;5012608;28;20382;-73
2022/10/18 11:10:24;;;;;;;;;;;;;;;15.09;89.44;102335.03;5008132;28;19984;-73
2022/10/18 11:12:49;;;;;;;;;;;;;;;15.10;89.17;102343.72;5011498;28;19971;-74
2022/10/18 11:15:14;;;;;;;;;;;;;;;15.09;89.15;102336.75;5009423;28;20399;-73
2022/10/18 11:17:55;;;;;;;;;;;;;;;15.12;89.42;102341.97;5013263;28;19987;-73
2022/10/18 11:20:20;;;;;;;;;;;;;;;15.12;89.59;102341.97;5011063;28;19905;-73
2022/10/18 11:23:17;;;;;;;;;;;;;;;15.14;89.55;102337.56;5009736;28;19927;-73
2022/10/18 11:25:55;;;;;;;;;;;;;;;15.16;89.69;102335.75;4958892;28;19922;-73
2022/10/18 11:28:32;;;;;;;;;;;;;;;15.14;89.41;102329.69;5012572;28;19921;-73
2022/10/18 11:31:16;;;;;;;;;;;;;;;15.16;89.67;102328.78;5014099;28;20430;-74
2022/10/18 11:33:42;;;;;;;;;;;;;;;15.16;90.05;102326.16;5008042;28;19996;-73
2022/10/18 11:36:13;;;;;;;;;;;;;;;15.17;89.75;102327.91;5009615;28;20398;-73
2022/10/18 11:38:51;;;;;;;;;;;;;;;15.17;90.06;102324.41;5011122;28;19933;-73
2022/10/18 11:41:35;;;;;;;;;;;;;;;15.15;89.92;102329.69;5011257;28;19921;-73
2022/10/18 11:44:02;;;;;;;;;;;;;;;15.18;89.61;102324.41;5008609;28;19929;-73
2022/10/18 11:46:31;;;;;;;;;;;;;;;15.19;89.84;102323.50;5008994;28;20450;-73
2022/10/18 11:48:59;;;;;;;;;;;;;;;15.21;89.47;102323.50;5008507;28;19925;-73
2022/10/18 11:51:25;;;;;;;;;;;;;;;15.22;89.05;102320.84;5007207;28;19922;-73
2022/10/18 11:53:53;;;;;;;;;;;;;;;15.24;89.13;102320.84;5008356;28;19917;-73
2022/10/18 11:56:21;;;;;;;;;;;;;;;15.27;89.74;102321.63;5009725;28;20015;-73
2022/10/18 11:58:55;;;;;;;;;;;;;;;15.29;90.16;102312.00;5015425;28;19925;-73
2022/10/18 12:01:33;;;;;;;;;;;;;;;15.33;89.67;102311.06;5008056;28;19925;-73
2022/10/18 12:04:03;;;;;;;;;;;;;;;15.37;89.77;102314.50;5012455;28;19925;-73
2022/10/18 12:06:31;;;;;;;;;;;;;;;15.39;89.68;102312.72;5010843;28;19922;-73
2022/10/18 12:09:00;;;;;;;;;;;;;;;15.46;89.55;102309.09;5010870;28;19917;-74
2022/10/18 12:11:29;;;;;;;;;;;;;;;15.51;89.49;102303.81;5005130;28;20395;-73
2022/10/18 12:14:06;;;;;;;;;;;;;;;15.52;89.50;102293.28;5006844;28;19933;-73
2022/10/18 12:16:38;;;;;;;;;;;;;;;15.58;89.43;102292.31;5010784;28;20386;-73
2022/10/18 12:19:05;;;;;;;;;;;;;;;15.59;89.44;102292.31;5007252;28;19987;-74
2022/10/18 12:21:32;;;;;;;;;;;;;;;15.58;88.70;102294.94;5005142;28;20597;-74
2022/10/18 12:24:00;;;;;;;;;;;;;;;15.60;88.66;102296.63;5007714;28;19925;-73
2022/10/18 12:26:27;;;;;;;;;;;;;;;15.62;88.54;102300.09;5007682;28;19928;-74
2022/10/18 12:28:59;;;;;;;;;;;;;;;15.62;89.23;102305.34;5007932;28;20862;-74
2022/10/18 12:31:28;;;;;;;;;;;;;;;15.60;88.58;102294.00;5006832;28;19921;-74
2022/10/18 12:33:56;;;;;;;;;;;;;;;15.56;87.49;102296.72;5002435;28;19932;-73
2022/10/18 12:36:21;;;;;;;;;;;;;;;15.55;87.07;102308.94;5007813;28;19925;-73
2022/10/18 12:38:48;;;;;;;;;;;;;;;15.55;87.37;102301.09;5008724;28;20079;-73
2022/10/18 12:41:23;;;;;;;;;;;;;;;15.56;87.64;102297.59;5002023;28;19921;-74